createdAt,value
2023-05-16T00:00:35.228Z,8.47
2023-05-16T00:03:04.086Z,8.51
2023-05-16T00:05:32.956Z,8.48
2023-05-16T00:08:01.767Z,8.48
2023-05-16T00:10:30.421Z,8.53
2023-05-16T00:13:02.230Z,8.52
2023-05-16T00:15:33.439Z,8.49
2023-05-16T00:18:02.062Z,8.51
2023-05-16T00:20:30.713Z,8.57
2023-05-16T00:23:01.392Z,8.61
2023-05-16T00:25:30.224Z,8.66
2023-05-16T00:27:59.066Z,8.63
2023-05-16T00:30:27.532Z,8.57
2023-05-16T00:32:57.724Z,8.48
2023-05-16T00:35:26.373Z,8.44
2023-05-16T00:37:55.073Z,8.48
2023-05-16T00:40:23.765Z,8.46
2023-05-16T00:42:52.446Z,8.51
2023-05-16T00:45:21.471Z,8.57
2023-05-16T00:47:50.364Z,8.62
2023-05-16T00:50:21.055Z,8.60
2023-05-16T00:52:50.144Z,8.71
2023-05-16T00:55:18.576Z,8.69
2023-05-16T00:57:47.640Z,8.75
2023-05-16T01:00:16.882Z,8.76
2023-05-16T01:02:45.614Z,8.74
2023-05-16T01:05:14.142Z,8.71
2023-05-16T01:07:44.156Z,8.79
2023-05-16T01:10:13.306Z,8.86
2023-05-16T01:12:54.526Z,8.93
2023-05-16T01:15:29.886Z,8.96
2023-05-16T01:18:04.672Z,8.91
2023-05-16T01:20:41.916Z,8.83
2023-05-16T01:23:28.945Z,8.78
2023-05-16T01:26:13.682Z,8.70
2023-05-16T01:28:45.400Z,8.75
2023-05-16T01:31:14.155Z,8.77
2023-05-16T01:33:42.854Z,8.75
2023-05-16T01:36:23.165Z,8.71
2023-05-16T01:39:03.596Z,8.64
2023-05-16T01:41:42.916Z,8.57
2023-05-16T01:44:20.366Z,8.66
2023-05-16T01:46:54.974Z,8.54
2023-05-16T01:49:31.540Z,8.59
2023-05-16T01:52:06.725Z,8.55
2023-05-16T01:54:38.542Z,8.52
2023-05-16T01:57:10.639Z,8.46
2023-05-16T01:59:42.967Z,8.47
2023-05-16T02:02:12.318Z,8.51
2023-05-16T02:04:40.970Z,8.54
2023-05-16T02:07:09.792Z,8.50
2023-05-16T02:09:39.595Z,8.52
2023-05-16T02:12:10.834Z,8.51
2023-05-16T02:14:39.163Z,8.54
2023-05-16T02:17:08.988Z,8.65
2023-05-16T02:19:38.090Z,8.65
2023-05-16T02:22:06.899Z,8.60
2023-05-16T02:24:36.244Z,8.55
2023-05-16T02:27:05.021Z,8.60
2023-05-16T02:29:35.107Z,8.56
2023-05-16T02:32:03.716Z,8.60
2023-05-16T02:34:32.509Z,8.70
2023-05-16T02:37:01.065Z,8.63
2023-05-16T02:39:30.116Z,8.66
2023-05-16T02:41:58.731Z,8.69
2023-05-16T02:44:27.618Z,8.56
2023-05-16T02:46:57.215Z,8.58
2023-05-16T02:49:25.783Z,8.64
2023-05-16T02:51:54.433Z,8.60
2023-05-16T02:54:23.335Z,8.56
2023-05-16T02:56:51.972Z,8.51
2023-05-16T02:59:21.381Z,8.42
2023-05-16T03:01:50.086Z,8.36
2023-05-16T03:04:20.161Z,8.47
2023-05-16T03:06:48.880Z,8.52
2023-05-16T03:09:17.200Z,8.41
2023-05-16T03:11:45.770Z,8.35
2023-05-16T03:14:14.404Z,8.31
2023-05-16T03:16:43.982Z,8.29
2023-05-16T03:19:13.991Z,8.26
2023-05-16T03:21:44.081Z,8.29
2023-05-16T03:24:12.860Z,8.25
2023-05-16T03:26:41.540Z,8.26
2023-05-16T03:29:10.532Z,8.34
2023-05-16T03:31:39.411Z,8.35
2023-05-16T03:34:08.150Z,8.37
2023-05-16T03:36:36.685Z,8.38
2023-05-16T03:39:08.859Z,8.34
2023-05-16T03:41:38.110Z,8.37
2023-05-16T03:44:07.174Z,8.40
2023-05-16T03:46:36.052Z,8.42
2023-05-16T03:49:04.749Z,8.29
2023-05-16T03:51:33.480Z,8.29
2023-05-16T03:54:02.064Z,8.31
2023-05-16T03:56:31.833Z,8.44
2023-05-16T03:59:00.447Z,8.46
2023-05-16T04:01:29.817Z,8.52
2023-05-16T04:03:58.404Z,8.55
2023-05-16T04:06:27.004Z,8.55
2023-05-16T04:08:55.538Z,8.54
2023-05-16T04:11:24.134Z,8.51
2023-05-16T04:13:55.094Z,8.61
2023-05-16T04:16:23.802Z,8.69
2023-05-16T04:18:52.648Z,8.79
2023-05-16T04:21:21.322Z,8.80
2023-05-16T04:23:51.686Z,8.79
2023-05-16T04:26:22.271Z,8.87
2023-05-16T04:28:50.886Z,8.97
2023-05-16T04:31:21.990Z,8.98
2023-05-16T04:33:50.740Z,9.08
2023-05-16T04:36:19.536Z,9.07
2023-05-16T04:38:48.239Z,9.15
2023-05-16T04:41:17.337Z,9.17
2023-05-16T04:43:45.786Z,9.25
2023-05-16T04:46:16.077Z,9.34
2023-05-16T04:48:46.256Z,9.38
2023-05-16T04:51:14.634Z,9.36
2023-05-16T04:53:43.620Z,9.34
2023-05-16T04:56:12.252Z,9.34
2023-05-16T04:58:42.805Z,9.33
2023-05-16T05:01:11.798Z,9.40
2023-05-16T05:03:40.586Z,9.54
2023-05-16T05:06:10.716Z,9.66
2023-05-16T05:08:39.341Z,9.80
2023-05-16T05:11:08.014Z,9.86
2023-05-16T05:13:36.704Z,9.83
2023-05-16T05:16:06.101Z,9.85
2023-05-16T05:18:34.823Z,10.05
2023-05-16T05:21:03.614Z,10.21
2023-05-16T05:23:34.926Z,10.36
2023-05-16T05:26:03.770Z,10.47
2023-05-16T05:28:32.198Z,10.51
2023-05-16T05:31:00.914Z,10.65
2023-05-16T05:33:29.823Z,10.83
2023-05-16T05:35:58.750Z,10.98
2023-05-16T05:38:27.612Z,11.06
2023-05-16T05:40:57.625Z,11.12
2023-05-16T05:43:26.030Z,11.08
2023-05-16T05:45:54.958Z,11.14
2023-05-16T05:48:23.778Z,11.08
2023-05-16T05:50:53.114Z,11.17
2023-05-16T05:53:22.757Z,11.43
2023-05-16T05:55:51.562Z,11.80
2023-05-16T05:58:22.481Z,11.95
2023-05-16T06:00:51.435Z,11.96
2023-05-16T06:03:21.323Z,12.24
2023-05-16T06:05:50.166Z,12.74
2023-05-16T06:08:19.268Z,12.74
2023-05-16T06:10:48.317Z,12.93
2023-05-16T06:13:17.008Z,13.11
2023-05-16T06:15:51.438Z,13.72
2023-05-16T06:18:19.983Z,13.77
2023-05-16T06:20:49.089Z,14.27
2023-05-16T06:23:19.285Z,14.45
2023-05-16T06:25:49.827Z,14.63
2023-05-16T06:28:18.495Z,14.42
2023-05-16T06:30:48.195Z,14.82
2023-05-16T06:33:16.957Z,14.65
2023-05-16T06:35:45.918Z,13.93
2023-05-16T06:38:14.796Z,13.38
2023-05-16T06:40:43.728Z,13.23
2023-05-16T06:43:13.076Z,13.04
2023-05-16T06:45:41.813Z,13.01
2023-05-16T06:48:11.649Z,13.26
2023-05-16T06:50:40.361Z,14.22
2023-05-16T06:53:09.109Z,14.76
2023-05-16T06:55:37.841Z,15.80
2023-05-16T06:58:06.738Z,15.42
2023-05-16T07:00:35.441Z,14.53
2023-05-16T07:03:04.162Z,14.31
2023-05-16T07:05:34.566Z,14.10
2023-05-16T07:08:04.586Z,13.70
2023-05-16T07:10:33.955Z,13.48
2023-05-16T07:13:03.165Z,13.52
2023-05-16T07:15:32.090Z,13.46
2023-05-16T07:18:01.021Z,13.92
2023-05-16T07:20:29.677Z,13.85
2023-05-16T07:22:59.838Z,14.06
2023-05-16T07:25:28.625Z,14.23
2023-05-16T07:27:57.424Z,14.06
2023-05-16T07:30:26.312Z,14.26
2023-05-16T07:32:55.389Z,14.13
2023-05-16T07:35:24.149Z,14.02
2023-05-16T07:37:52.775Z,13.81
2023-05-16T07:40:25.914Z,13.83
2023-05-16T07:42:54.470Z,13.98
2023-05-16T07:45:23.380Z,14.01
2023-05-16T07:47:52.102Z,14.52
2023-05-16T07:50:20.839Z,14.85
2023-05-16T07:52:49.236Z,14.58
2023-05-16T07:55:18.003Z,14.53
2023-05-16T07:57:47.805Z,14.92
2023-05-16T08:00:18.127Z,15.70
2023-05-16T08:02:47.029Z,15.61
2023-05-16T08:05:16.441Z,15.80
2023-05-16T08:07:45.743Z,15.70
2023-05-16T08:10:14.401Z,16.18
2023-05-16T08:12:43.038Z,16.86
2023-05-16T08:15:13.528Z,17.84
2023-05-16T08:17:42.417Z,17.92
2023-05-16T08:20:12.200Z,18.34
2023-05-16T08:22:40.908Z,17.44
2023-05-16T08:25:09.991Z,17.25
2023-05-16T08:27:38.309Z,17.00
2023-05-16T08:30:08.809Z,16.95
2023-05-16T08:32:38.670Z,16.79
2023-05-16T08:35:08.320Z,16.38
2023-05-16T08:37:36.970Z,16.50
2023-05-16T08:40:08.423Z,16.28
2023-05-16T08:42:38.066Z,16.14
2023-05-16T08:45:08.637Z,16.25
2023-05-16T08:47:41.580Z,16.29
2023-05-16T08:50:11.832Z,16.20
2023-05-16T08:52:42.869Z,15.84
2023-05-16T08:55:12.624Z,15.57
2023-05-16T08:57:42.290Z,15.64
2023-05-16T09:00:13.924Z,15.39
2023-05-16T09:02:45.047Z,15.64
2023-05-16T09:05:15.045Z,16.15
2023-05-16T09:07:44.586Z,16.19
2023-05-16T09:10:14.251Z,16.11
2023-05-16T09:12:43.543Z,16.38
2023-05-16T09:15:12.720Z,16.09
2023-05-16T09:17:45.164Z,16.00
2023-05-16T09:20:15.662Z,15.97
2023-05-16T09:22:53.743Z,16.42
2023-05-16T09:27:56.726Z,17.37
2023-05-16T09:30:30.518Z,17.66
2023-05-16T09:33:01.352Z,17.72
2023-05-16T09:38:01.323Z,18.64
2023-05-16T09:40:29.989Z,18.64
2023-05-16T09:43:07.832Z,17.93
2023-05-16T09:45:37.716Z,18.29
2023-05-16T09:48:09.689Z,17.78
2023-05-16T09:50:40.100Z,17.63
2023-05-16T09:53:08.437Z,17.45
2023-05-16T09:55:37.289Z,17.87
2023-05-16T09:58:05.992Z,17.70
2023-05-16T10:00:35.735Z,17.28
2023-05-16T10:03:06.061Z,17.36
2023-05-16T10:05:37.778Z,17.62
2023-05-16T10:08:07.590Z,18.09
2023-05-16T10:10:40.880Z,18.71
2023-05-16T10:13:12.769Z,18.63
2023-05-16T10:15:42.474Z,19.35
2023-05-16T10:18:13.640Z,20.71
2023-05-16T10:20:50.226Z,19.73
2023-05-16T10:23:21.308Z,18.91
2023-05-16T10:25:50.805Z,18.00
2023-05-16T10:28:19.515Z,17.18
2023-05-16T10:30:48.728Z,17.83
2023-05-16T10:33:20.177Z,17.84
2023-05-16T10:35:50.838Z,17.11
2023-05-16T10:38:20.646Z,16.83
2023-05-16T10:40:50.452Z,16.57
2023-05-16T10:43:26.753Z,16.77
2023-05-16T10:45:59.606Z,16.56
2023-05-16T10:48:32.948Z,16.26
2023-05-16T10:51:04.279Z,15.72
2023-05-16T10:53:35.173Z,15.71
2023-05-16T10:56:12.884Z,15.57
2023-05-16T10:58:43.692Z,15.62
2023-05-16T11:01:21.628Z,15.38
2023-05-16T11:04:11.092Z,15.38
2023-05-16T11:06:56.681Z,15.45
2023-05-16T11:09:28.266Z,15.40
2023-05-16T11:12:03.958Z,15.53
2023-05-16T11:14:39.357Z,15.79
2023-05-16T11:17:14.328Z,15.90
2023-05-16T11:19:45.388Z,15.60
2023-05-16T11:22:24.749Z,15.71
2023-05-16T11:24:58.992Z,15.79
2023-05-16T11:27:30.216Z,15.99
2023-05-16T11:30:03.522Z,16.01
2023-05-16T11:32:35.656Z,15.79
2023-05-16T11:35:05.208Z,15.96
2023-05-16T11:37:36.505Z,15.84
2023-05-16T11:40:08.987Z,15.97
2023-05-16T11:42:39.365Z,15.95
2023-05-16T11:45:09.827Z,16.06
2023-05-16T11:47:40.014Z,16.00
2023-05-16T11:50:15.204Z,16.09
2023-05-16T11:52:48.203Z,16.05
2023-05-16T11:55:32.384Z,15.97
2023-05-16T11:58:08.030Z,15.81
2023-05-16T12:00:37.075Z,15.95
2023-05-16T12:03:08.235Z,15.88
2023-05-16T12:05:37.118Z,15.70
2023-05-16T12:08:07.287Z,15.54
2023-05-16T12:10:38.658Z,15.32
2023-05-16T12:13:07.556Z,15.24
2023-05-16T12:15:36.937Z,15.33
2023-05-16T12:18:05.725Z,15.12
2023-05-16T12:20:34.526Z,15.05
2023-05-16T12:23:04.618Z,15.18
2023-05-16T12:25:36.427Z,15.12
2023-05-16T12:28:07.861Z,15.47
2023-05-16T12:30:36.701Z,15.45
2023-05-16T12:33:13.509Z,15.39
2023-05-16T12:35:44.889Z,15.24
2023-05-16T12:38:16.038Z,15.25
2023-05-16T12:40:46.559Z,15.12
2023-05-16T12:43:16.542Z,15.01
2023-05-16T12:45:50.945Z,14.60
2023-05-16T12:48:20.013Z,14.36
2023-05-16T12:50:51.739Z,14.23
2023-05-16T12:53:21.058Z,14.04
2023-05-16T12:55:51.091Z,13.62
2023-05-16T12:58:19.902Z,13.25
2023-05-16T13:00:48.681Z,12.97
2023-05-16T13:03:17.671Z,12.80
2023-05-16T13:05:46.753Z,12.74
2023-05-16T13:08:15.425Z,12.61
2023-05-16T13:10:44.002Z,12.74
2023-05-16T13:13:21.991Z,12.79
2023-05-16T13:15:57.346Z,12.96
2023-05-16T13:18:26.127Z,12.97
2023-05-16T13:20:54.761Z,12.99
2023-05-16T13:23:23.663Z,13.07
2023-05-16T13:25:53.044Z,13.03
2023-05-16T13:28:22.975Z,12.99
2023-05-16T13:30:51.791Z,13.15
2023-05-16T13:33:20.492Z,13.14
2023-05-16T13:35:49.580Z,13.20
2023-05-16T13:38:19.057Z,13.10
2023-05-16T13:40:47.734Z,12.84
2023-05-16T13:43:16.423Z,12.82
2023-05-16T13:45:46.192Z,12.73
2023-05-16T13:48:14.867Z,12.84
2023-05-16T13:50:44.249Z,12.79
2023-05-16T13:53:13.045Z,12.69
2023-05-16T13:55:41.707Z,12.79
2023-05-16T13:58:10.421Z,12.78
2023-05-16T14:00:45.296Z,12.90
2023-05-16T14:03:16.209Z,13.01
2023-05-16T14:05:45.217Z,13.21
2023-05-16T14:08:14.577Z,13.29
2023-05-16T14:10:43.210Z,13.10
2023-05-16T14:13:12.506Z,13.02
2023-05-16T14:15:41.262Z,13.17
2023-05-16T14:18:09.741Z,13.07
2023-05-16T14:20:39.487Z,13.32
2023-05-16T14:23:08.108Z,13.40
2023-05-16T14:25:36.766Z,13.73
2023-05-16T14:28:05.748Z,13.70
2023-05-16T14:30:34.385Z,13.55
2023-05-16T14:33:03.833Z,13.40
2023-05-16T14:35:32.505Z,13.30
2023-05-16T14:38:02.471Z,13.41
2023-05-16T14:40:30.981Z,13.43
2023-05-16T14:42:59.707Z,13.17
2023-05-16T14:45:28.744Z,12.86
2023-05-16T14:47:57.715Z,12.81
2023-05-16T14:50:29.878Z,12.55
2023-05-16T14:52:58.531Z,12.27
2023-05-16T14:55:28.780Z,12.13
2023-05-16T14:57:59.996Z,12.08
2023-05-16T15:00:29.258Z,12.33
2023-05-16T15:02:58.109Z,12.39
2023-05-16T15:05:26.931Z,12.40
2023-05-16T15:07:55.758Z,12.34
2023-05-16T15:10:24.483Z,12.39
2023-05-16T15:12:54.620Z,12.59
2023-05-16T15:15:24.069Z,12.87
2023-05-16T15:17:53.843Z,12.85
2023-05-16T15:20:23.512Z,12.96
2023-05-16T15:22:52.120Z,13.16
2023-05-16T15:25:20.808Z,13.21
2023-05-16T15:27:49.456Z,13.56
2023-05-16T15:30:19.480Z,13.68
2023-05-16T15:32:48.155Z,13.50
2023-05-16T15:35:17.211Z,13.45
2023-05-16T15:37:45.856Z,13.31
2023-05-16T15:40:15.639Z,13.31
2023-05-16T15:42:44.978Z,13.00
2023-05-16T15:45:14.628Z,12.97
2023-05-16T15:47:44.370Z,12.86
2023-05-16T15:50:13.573Z,12.71
2023-05-16T15:52:44.506Z,12.55
2023-05-16T15:55:13.188Z,12.55
2023-05-16T15:57:42.159Z,12.63
2023-05-16T16:00:11.799Z,12.57
2023-05-16T16:02:42.156Z,12.62
2023-05-16T16:05:12.406Z,12.61
2023-05-16T16:07:41.024Z,12.71
2023-05-16T16:10:10.719Z,12.62
2023-05-16T16:12:39.426Z,12.57
2023-05-16T16:15:10.585Z,12.67
2023-05-16T16:17:39.952Z,12.56
2023-05-16T16:20:09.611Z,12.51
2023-05-16T16:22:39.729Z,12.40
2023-05-16T16:25:09.537Z,12.27
2023-05-16T16:27:38.316Z,12.32
2023-05-16T16:30:08.651Z,12.40
2023-05-16T16:32:37.748Z,12.40
2023-05-16T16:35:07.788Z,12.42
2023-05-16T16:37:38.243Z,12.36
2023-05-16T16:40:11.193Z,12.46
2023-05-16T16:42:40.568Z,12.50
2023-05-16T16:45:10.727Z,12.55
2023-05-16T16:47:40.382Z,12.46
2023-05-16T16:50:10.870Z,12.47
2023-05-16T16:52:40.544Z,12.32
2023-05-16T16:55:09.785Z,12.20
2023-05-16T16:57:38.540Z,12.15
2023-05-16T17:00:09.025Z,12.18
2023-05-16T17:02:37.864Z,11.93
2023-05-16T17:05:08.778Z,12.01
2023-05-16T17:07:37.123Z,11.96
2023-05-16T17:10:08.352Z,11.96
2023-05-16T17:12:44.489Z,11.80
2023-05-16T17:15:13.259Z,11.70
2023-05-16T17:17:43.675Z,11.77
2023-05-16T17:20:13.180Z,11.56
2023-05-16T17:22:42.604Z,11.39
2023-05-16T17:25:13.836Z,11.36
2023-05-16T17:27:43.264Z,11.44
2023-05-16T17:30:13.109Z,11.53
2023-05-16T17:32:41.840Z,11.44
2023-05-16T17:35:10.958Z,11.35
2023-05-16T17:37:39.802Z,11.20
2023-05-16T17:40:11.964Z,11.21
2023-05-16T17:42:41.586Z,11.32
2023-05-16T17:45:12.585Z,11.24
2023-05-16T17:47:41.646Z,11.30
2023-05-16T17:50:11.485Z,11.30
2023-05-16T17:52:40.548Z,11.30
2023-05-16T17:55:11.086Z,11.21
2023-05-16T17:57:41.317Z,11.16
2023-05-16T18:00:11.487Z,11.19
2023-05-16T18:02:40.442Z,11.09
2023-05-16T18:05:10.311Z,11.14
2023-05-16T18:07:39.031Z,11.17
2023-05-16T18:10:09.099Z,11.11
2023-05-16T18:12:38.863Z,11.12
2023-05-16T18:15:11.805Z,11.04
2023-05-16T18:17:40.627Z,11.01
2023-05-16T18:20:13.248Z,11.01
2023-05-16T18:22:42.824Z,10.95
2023-05-16T18:25:12.552Z,10.83
2023-05-16T18:27:41.772Z,10.93
2023-05-16T18:30:13.559Z,10.88
2023-05-16T18:32:42.385Z,10.83
2023-05-16T18:35:11.343Z,10.90
2023-05-16T18:37:41.011Z,10.79
2023-05-16T18:40:12.371Z,10.65
2023-05-16T18:42:41.041Z,10.62
2023-05-16T18:45:12.559Z,10.56
2023-05-16T18:47:41.418Z,10.51
2023-05-16T18:50:10.953Z,10.37
2023-05-16T18:52:40.892Z,10.24
2023-05-16T18:55:11.439Z,10.22
2023-05-16T18:57:40.306Z,10.15
2023-05-16T19:00:12.801Z,10.02
2023-05-16T19:02:42.813Z,10.01
2023-05-16T19:05:12.012Z,9.97
2023-05-16T19:07:40.785Z,9.98
2023-05-16T19:10:10.416Z,9.98
2023-05-16T19:12:39.015Z,9.88
2023-05-16T19:15:09.110Z,9.83
2023-05-16T19:17:41.623Z,9.90
2023-05-16T19:20:11.811Z,9.85
2023-05-16T19:22:40.620Z,9.82
2023-05-16T19:25:10.084Z,9.88
2023-05-16T19:27:38.752Z,9.81
2023-05-16T19:30:08.720Z,9.81
2023-05-16T19:32:38.462Z,9.76
2023-05-16T19:35:07.976Z,9.69
2023-05-16T19:37:37.142Z,9.62
2023-05-16T19:40:06.231Z,9.52
2023-05-16T19:42:34.855Z,9.48
2023-05-16T19:45:03.491Z,9.36
2023-05-16T19:47:32.378Z,9.29
2023-05-16T19:50:02.525Z,9.26
2023-05-16T19:52:31.228Z,9.33
2023-05-16T19:54:59.956Z,9.24
2023-05-16T19:57:28.648Z,9.10
2023-05-16T19:59:57.305Z,9.05
2023-05-16T20:02:26.315Z,9.04
2023-05-16T20:04:55.169Z,9.08
2023-05-16T20:07:25.536Z,9.09
2023-05-16T20:09:54.820Z,9.10
2023-05-16T20:12:23.532Z,9.08
2023-05-16T20:14:52.748Z,9.06
2023-05-16T20:17:21.542Z,8.94
2023-05-16T20:19:50.372Z,8.97
2023-05-16T20:22:19.928Z,8.92
2023-05-16T20:24:51.398Z,8.94
2023-05-16T20:27:21.714Z,8.89
2023-05-16T20:29:52.306Z,8.93
2023-05-16T20:32:21.565Z,8.95
2023-05-16T20:34:50.214Z,8.89
2023-05-16T20:37:18.588Z,8.86
2023-05-16T20:39:47.196Z,8.85
2023-05-16T20:42:17.295Z,8.88
2023-05-16T20:44:46.045Z,8.86
2023-05-16T20:47:14.754Z,8.83
2023-05-16T20:49:43.420Z,8.84
2023-05-16T20:52:12.310Z,8.89
2023-05-16T20:54:41.862Z,8.83
2023-05-16T20:57:10.833Z,8.72
2023-05-16T20:59:41.070Z,8.70
2023-05-16T21:02:10.288Z,8.68
2023-05-16T21:04:39.569Z,8.60
2023-05-16T21:07:08.805Z,8.59
2023-05-16T21:09:38.003Z,8.60
2023-05-16T21:12:07.912Z,8.70
2023-05-16T21:14:36.593Z,8.65
2023-05-16T21:17:06.786Z,8.58
2023-05-16T21:19:35.558Z,8.59
2023-05-16T21:22:04.366Z,8.52
2023-05-16T21:24:35.375Z,8.43
2023-05-16T21:27:04.747Z,8.43
2023-05-16T21:29:33.462Z,8.45
2023-05-16T21:32:02.266Z,8.42
2023-05-16T21:34:32.405Z,8.36
2023-05-16T21:37:01.256Z,8.36
2023-05-16T21:39:29.894Z,8.32
2023-05-16T21:41:58.200Z,8.27
2023-05-16T21:44:26.895Z,8.23
2023-05-16T21:46:55.497Z,8.21
2023-05-16T21:49:24.244Z,8.20
2023-05-16T21:51:54.232Z,8.19
2023-05-16T21:54:22.867Z,8.16
2023-05-16T21:56:51.556Z,8.19
2023-05-16T21:59:20.072Z,8.22
2023-05-16T22:01:48.692Z,8.15
2023-05-16T22:04:17.364Z,8.13
2023-05-16T22:06:46.365Z,8.12
2023-05-16T22:09:16.454Z,8.09
2023-05-16T22:11:45.276Z,8.12
2023-05-16T22:14:13.560Z,8.13
2023-05-16T22:16:41.970Z,8.06
2023-05-16T22:19:10.728Z,8.05
2023-05-16T22:21:39.367Z,8.07
2023-05-16T22:24:08.500Z,8.18
2023-05-16T22:26:38.220Z,8.09
2023-05-16T22:29:06.894Z,8.11
2023-05-16T22:31:35.545Z,8.11
2023-05-16T22:34:04.309Z,8.07
2023-05-16T22:36:32.984Z,8.04
2023-05-16T22:39:01.561Z,8.10
2023-05-16T22:41:30.586Z,8.04
2023-05-16T22:44:01.513Z,7.97
2023-05-16T22:46:30.153Z,7.99
2023-05-16T22:48:58.899Z,7.93
2023-05-16T22:51:27.329Z,7.90
2023-05-16T22:53:56.061Z,7.85
2023-05-16T22:56:24.675Z,7.83
2023-05-16T22:58:53.551Z,7.80
2023-05-16T23:01:23.546Z,7.79
2023-05-16T23:03:51.961Z,7.78
2023-05-16T23:06:20.658Z,7.82
2023-05-16T23:08:49.370Z,7.81
2023-05-16T23:11:19.732Z,7.80
2023-05-16T23:13:48.431Z,7.74
2023-05-16T23:16:17.216Z,7.76
2023-05-16T23:18:46.975Z,7.76
2023-05-16T23:21:15.812Z,7.81
2023-05-16T23:23:44.993Z,7.91
2023-05-16T23:26:13.376Z,7.83
2023-05-16T23:28:42.025Z,7.88
2023-05-16T23:31:10.642Z,7.84
2023-05-16T23:33:40.104Z,7.86
2023-05-16T23:36:10.580Z,7.76
2023-05-16T23:38:39.198Z,7.73
2023-05-16T23:41:07.810Z,7.76
2023-05-16T23:43:36.422Z,7.78
2023-05-16T23:46:05.084Z,7.75
2023-05-16T23:48:36.105Z,7.77
2023-05-16T23:51:07.544Z,7.74
2023-05-16T23:53:38.087Z,7.70
2023-05-16T23:56:06.719Z,7.75
2023-05-16T23:58:35.477Z,7.78
